IRA7070 OIIE-OMDB
Flight info
| Callsign | IRA7070 |
|---|---|
| Flight time | N/A |
| Altitude | 39000 |
| Route | EGVEL P574 SYZ G666 ORSAR/N0382F250 R784 TATLA L223 VUTEB |
| Aircraft | A343/H-SDE2E3FGHIJ4J5M1RWXY/LB1D1 |
Departure
| Time | 2026-05-06 21:19 |
|---|---|
| Airport | Imam Khomeini International Airport (OIIE) |
Arrival
| Time | N/A |
|---|---|
| Airport | Dubai International Airport (OMDB) |
| Time | Latitude | Longitude | Altitude | Speed | Heading |
|---|---|---|---|---|---|
| 2026-05-06 21:05 | 35.41010 | 51.15597 | 3274 ft | 0 kts | 193° |
| 2026-05-06 21:08 | 35.41013 | 51.15598 | 3269 ft | 3 kts | 193° |
| 2026-05-06 21:08 | 35.41039 | 51.15606 | 3270 ft | 4 kts | 193° |
| 2026-05-06 21:08 | 35.41065 | 51.15609 | 3271 ft | 4 kts | 169° |
| 2026-05-06 21:08 | 35.41090 | 51.15598 | 3270 ft | 4 kts | 138° |
| 2026-05-06 21:09 | 35.41103 | 51.15576 | 3271 ft | 1 kts | 109° |
| 2026-05-06 21:09 | 35.41105 | 51.15570 | 3270 ft | 0 kts | 109° |
| 2026-05-06 21:12 | 35.41105 | 51.15571 | 3270 ft | 0 kts | 109° |
| 2026-05-06 21:12 | 35.41104 | 51.15573 | 3271 ft | 0 kts | 109° |
| 2026-05-06 21:12 | 35.41103 | 51.15577 | 3271 ft | 1 kts | 109° |
| 2026-05-06 21:13 | 35.41102 | 51.15581 | 3272 ft | 1 kts | 109° |
| 2026-05-06 21:13 | 35.41100 | 51.15587 | 3270 ft | 1 kts | 109° |
| 2026-05-06 21:13 | 35.41096 | 51.15603 | 3270 ft | 6 kts | 109° |
| 2026-05-06 21:13 | 35.41081 | 51.15655 | 3270 ft | 6 kts | 108° |
| 2026-05-06 21:14 | 35.41068 | 51.15706 | 3271 ft | 6 kts | 108° |
| 2026-05-06 21:14 | 35.41053 | 51.15757 | 3273 ft | 6 kts | 109° |
| 2026-05-06 21:14 | 35.41043 | 51.15795 | 3274 ft | 4 kts | 108° |
| 2026-05-06 21:14 | 35.41033 | 51.15831 | 3271 ft | 5 kts | 109° |
| 2026-05-06 21:15 | 35.41020 | 51.15878 | 3270 ft | 7 kts | 109° |
| 2026-05-06 21:15 | 35.41003 | 51.15937 | 3270 ft | 8 kts | 109° |
| 2026-05-06 21:15 | 35.40987 | 51.16009 | 3272 ft | 9 kts | 96° |
| 2026-05-06 21:15 | 35.41009 | 51.16072 | 3269 ft | 7 kts | 43° |
| 2026-05-06 21:16 | 35.41057 | 51.16096 | 3269 ft | 8 kts | 19° |
| 2026-05-06 21:16 | 35.41113 | 51.16125 | 3269 ft | 10 kts | 32° |
| 2026-05-06 21:16 | 35.41126 | 51.16185 | 3267 ft | 6 kts | 106° |
| 2026-05-06 21:16 | 35.41109 | 51.16239 | 3266 ft | 8 kts | 111° |
| 2026-05-06 21:17 | 35.41086 | 51.16310 | 3265 ft | 11 kts | 111° |
| 2026-05-06 21:17 | 35.41063 | 51.16408 | 3264 ft | 14 kts | 93° |
| 2026-05-06 21:17 | 35.41114 | 51.16492 | 3261 ft | 13 kts | 26° |
| 2026-05-06 21:17 | 35.41198 | 51.16528 | 3261 ft | 13 kts | 18° |
| 2026-05-06 21:18 | 35.41273 | 51.16557 | 3264 ft | 9 kts | 13° |
| 2026-05-06 21:18 | 35.41321 | 51.16538 | 3264 ft | 12 kts | 316° |
| 2026-05-06 21:18 | 35.41394 | 51.16310 | 3268 ft | 45 kts | 290° |
| 2026-05-06 21:18 | 35.41533 | 51.15823 | 3276 ft | 82 kts | 289° |
| 2026-05-06 21:19 | 35.41764 | 51.14962 | 3291 ft | 129 kts | 288° |
| 2026-05-06 21:19 | 35.42095 | 51.13765 | 3302 ft | 166 kts | 288° |
| 2026-05-06 21:19 | 35.42470 | 51.12311 | 3525 ft | 187 kts | 286° |
| 2026-05-06 21:19 | 35.42855 | 51.10728 | 3955 ft | 199 kts | 288° |
| 2026-05-06 21:20 | 35.43343 | 51.09085 | 4515 ft | 214 kts | 292° |
| 2026-05-06 21:20 | 35.43715 | 51.07887 | 4757 ft | 232 kts | 292° |
| 2026-05-06 21:20 | 35.44503 | 51.05266 | 5294 ft | 259 kts | 290° |
| 2026-05-06 21:20 | 35.45006 | 51.03109 | 5983 ft | 267 kts | 278° |
| 2026-05-06 21:21 | 35.45143 | 51.00831 | 6781 ft | 270 kts | 270° |
| 2026-05-06 21:21 | 35.45215 | 50.98529 | 7653 ft | 269 kts | 271° |
| 2026-05-06 21:21 | 35.45228 | 50.96250 | 8620 ft | 266 kts | 264° |
| 2026-05-06 21:21 | 35.44930 | 50.94025 | 9564 ft | 264 kts | 253° |
| 2026-05-06 21:22 | 35.44225 | 50.91960 | 10374 ft | 266 kts | 240° |
| 2026-05-06 21:22 | 35.43046 | 50.90116 | 10720 ft | 287 kts | 221° |
| 2026-05-06 21:22 | 35.41290 | 50.88776 | 11033 ft | 308 kts | 210° |
| 2026-05-06 21:22 | 35.39318 | 50.87614 | 11506 ft | 319 kts | 208° |
| 2026-05-06 21:23 | 35.37285 | 50.86473 | 12194 ft | 323 kts | 208° |
| 2026-05-06 21:23 | 35.35237 | 50.85332 | 12953 ft | 324 kts | 208° |
| 2026-05-06 21:23 | 35.33174 | 50.84184 | 13699 ft | 326 kts | 208° |
| 2026-05-06 21:23 | 35.31104 | 50.83031 | 14391 ft | 328 kts | 208° |
| 2026-05-06 21:24 | 35.29012 | 50.81866 | 15024 ft | 332 kts | 208° |
| 2026-05-06 21:24 | 35.26902 | 50.80691 | 15675 ft | 335 kts | 208° |
| 2026-05-06 21:24 | 35.24777 | 50.79509 | 16356 ft | 337 kts | 208° |
| 2026-05-06 21:24 | 35.22639 | 50.78320 | 17038 ft | 339 kts | 208° |
| 2026-05-06 21:25 | 35.20488 | 50.77124 | 17721 ft | 341 kts | 208° |
| 2026-05-06 21:25 | 35.19053 | 50.76327 | 18201 ft | 342 kts | 208° |
| 2026-05-06 21:25 | 35.16875 | 50.75117 | 18777 ft | 346 kts | 208° |
| 2026-05-06 21:25 | 35.13925 | 50.73479 | 19529 ft | 350 kts | 208° |
| 2026-05-06 21:26 | 35.12456 | 50.72665 | 19909 ft | 351 kts | 208° |
| 2026-05-06 21:26 | 35.10222 | 50.71427 | 20486 ft | 353 kts | 208° |
| 2026-05-06 21:26 | 35.07220 | 50.69765 | 21257 ft | 356 kts | 208° |
| 2026-05-06 21:26 | 35.05723 | 50.68937 | 21631 ft | 358 kts | 208° |
| 2026-05-06 21:27 | 35.03450 | 50.67679 | 22150 ft | 360 kts | 208° |
| 2026-05-06 21:27 | 35.00413 | 50.65999 | 22828 ft | 364 kts | 208° |
| 2026-05-06 21:27 | 34.98099 | 50.64720 | 23343 ft | 367 kts | 208° |
| 2026-05-06 21:27 | 34.96522 | 50.63849 | 23686 ft | 369 kts | 208° |
| 2026-05-06 21:28 | 34.94180 | 50.62557 | 24097 ft | 371 kts | 208° |
| 2026-05-06 21:28 | 34.91821 | 50.61255 | 24512 ft | 373 kts | 208° |
| 2026-05-06 21:28 | 34.89451 | 50.59949 | 24943 ft | 375 kts | 208° |
| 2026-05-06 21:28 | 34.87070 | 50.58638 | 25354 ft | 377 kts | 208° |
| 2026-05-06 21:29 | 34.84706 | 50.57336 | 25753 ft | 379 kts | 208° |
| 2026-05-06 21:29 | 34.82298 | 50.56011 | 26150 ft | 381 kts | 208° |
| 2026-05-06 21:29 | 34.79874 | 50.54679 | 26535 ft | 383 kts | 208° |
| 2026-05-06 21:29 | 34.77430 | 50.53356 | 26865 ft | 387 kts | 207° |
| 2026-05-06 21:30 | 34.74869 | 50.52293 | 27226 ft | 394 kts | 199° |
| 2026-05-06 21:30 | 34.72141 | 50.51723 | 27614 ft | 402 kts | 191° |
| 2026-05-06 21:30 | 34.69314 | 50.51730 | 27960 ft | 412 kts | 181° |
| 2026-05-06 21:30 | 34.66456 | 50.52357 | 28333 ft | 424 kts | 172° |
| 2026-05-06 21:31 | 34.63620 | 50.53408 | 28681 ft | 429 kts | 169° |
| 2026-05-06 21:31 | 34.60790 | 50.54594 | 29038 ft | 432 kts | 168° |
| 2026-05-06 21:31 | 34.57957 | 50.55839 | 29272 ft | 436 kts | 167° |
| 2026-05-06 21:31 | 34.55088 | 50.57113 | 29509 ft | 440 kts | 167° |
| 2026-05-06 21:32 | 34.52205 | 50.58387 | 29851 ft | 441 kts | 167° |
| 2026-05-06 21:32 | 34.46409 | 50.60905 | 30427 ft | 444 kts | 168° |
| 2026-05-06 21:32 | 34.43490 | 50.62157 | 30736 ft | 445 kts | 168° |
| 2026-05-06 21:33 | 34.40561 | 50.63406 | 30972 ft | 447 kts | 168° |
| 2026-05-06 21:33 | 34.37617 | 50.64656 | 31230 ft | 449 kts | 169° |
| 2026-05-06 21:33 | 34.34665 | 50.65909 | 31483 ft | 451 kts | 169° |
| 2026-05-06 21:33 | 34.31701 | 50.67166 | 31738 ft | 452 kts | 169° |
| 2026-05-06 21:34 | 34.28725 | 50.68429 | 31999 ft | 454 kts | 169° |
| 2026-05-06 21:34 | 34.25750 | 50.69692 | 32317 ft | 453 kts | 169° |
| 2026-05-06 21:34 | 34.22783 | 50.70953 | 32716 ft | 450 kts | 170° |
| 2026-05-06 21:34 | 34.19838 | 50.72205 | 33123 ft | 448 kts | 170° |
| 2026-05-06 21:35 | 34.16899 | 50.73450 | 33477 ft | 447 kts | 170° |
| 2026-05-06 21:35 | 34.13966 | 50.74693 | 33824 ft | 447 kts | 171° |
| 2026-05-06 21:35 | 34.11036 | 50.75934 | 34213 ft | 445 kts | 171° |
| 2026-05-06 21:35 | 34.08158 | 50.77151 | 34534 ft | 444 kts | 171° |
| 2026-05-06 21:36 | 34.05238 | 50.78370 | 34822 ft | 444 kts | 171° |
| 2026-05-06 21:36 | 34.02316 | 50.79593 | 35109 ft | 444 kts | 171° |
| 2026-05-06 21:36 | 33.99406 | 50.80820 | 35370 ft | 443 kts | 171° |
| 2026-05-06 21:36 | 33.96498 | 50.82048 | 35618 ft | 443 kts | 171° |
| 2026-05-06 21:37 | 33.93593 | 50.83274 | 35871 ft | 443 kts | 171° |
| 2026-05-06 21:37 | 33.90689 | 50.84500 | 36113 ft | 442 kts | 171° |
| 2026-05-06 21:37 | 33.87783 | 50.85723 | 36309 ft | 442 kts | 171° |
| 2026-05-06 21:37 | 33.84878 | 50.86942 | 36512 ft | 443 kts | 171° |
| 2026-05-06 21:38 | 33.81970 | 50.88161 | 36727 ft | 442 kts | 171° |
| 2026-05-06 21:38 | 33.79062 | 50.89380 | 36937 ft | 442 kts | 171° |
| 2026-05-06 21:38 | 33.76159 | 50.90595 | 37159 ft | 442 kts | 171° |
| 2026-05-06 21:38 | 33.73254 | 50.91812 | 37384 ft | 442 kts | 172° |
| 2026-05-06 21:39 | 33.70352 | 50.93026 | 37520 ft | 442 kts | 172° |
| 2026-05-06 21:39 | 33.67442 | 50.94241 | 37690 ft | 443 kts | 172° |
| 2026-05-06 21:39 | 33.64534 | 50.95456 | 37901 ft | 443 kts | 172° |
| 2026-05-06 21:39 | 33.61628 | 50.96670 | 38123 ft | 442 kts | 172° |
| 2026-05-06 21:40 | 33.58722 | 50.97883 | 38324 ft | 442 kts | 172° |
| 2026-05-06 21:40 | 33.55822 | 50.99092 | 38494 ft | 442 kts | 172° |
| 2026-05-06 21:40 | 33.52921 | 51.00302 | 38677 ft | 441 kts | 172° |
| 2026-05-06 21:40 | 33.50026 | 51.01507 | 38876 ft | 440 kts | 172° |
| 2026-05-06 21:41 | 33.47138 | 51.02711 | 39035 ft | 440 kts | 172° |
| 2026-05-06 21:41 | 33.44241 | 51.03919 | 39143 ft | 440 kts | 172° |
| 2026-05-06 21:41 | 33.38433 | 51.06323 | 39172 ft | 441 kts | 172° |
| 2026-05-06 21:42 | 33.32654 | 51.08719 | 39173 ft | 439 kts | 172° |
| 2026-05-06 21:42 | 33.26889 | 51.11103 | 39173 ft | 438 kts | 172° |
| 2026-05-06 21:43 | 33.21122 | 51.13484 | 39173 ft | 438 kts | 172° |
| 2026-05-06 21:43 | 33.15388 | 51.15849 | 39168 ft | 439 kts | 172° |
| 2026-05-06 21:44 | 33.09581 | 51.18242 | 39165 ft | 438 kts | 172° |
| 2026-05-06 21:44 | 33.03855 | 51.20599 | 39167 ft | 438 kts | 172° |
| 2026-05-06 21:45 | 32.98085 | 51.22970 | 39166 ft | 439 kts | 172° |
| 2026-05-06 21:45 | 32.92297 | 51.25345 | 39165 ft | 440 kts | 172° |
| 2026-05-06 21:46 | 32.86516 | 51.27715 | 39159 ft | 440 kts | 172° |
| 2026-05-06 21:46 | 32.80732 | 51.30089 | 39146 ft | 440 kts | 172° |
| 2026-05-06 21:47 | 32.74947 | 51.32455 | 39154 ft | 440 kts | 172° |
| 2026-05-06 21:47 | 32.69162 | 51.34818 | 39157 ft | 439 kts | 173° |
| 2026-05-06 21:48 | 32.63377 | 51.37164 | 39129 ft | 439 kts | 173° |
| 2026-05-06 21:48 | 32.57593 | 51.39523 | 39140 ft | 439 kts | 173° |
| 2026-05-06 21:49 | 32.51812 | 51.41886 | 39140 ft | 439 kts | 173° |
| 2026-05-06 21:49 | 32.46031 | 51.44235 | 39143 ft | 439 kts | 173° |
| 2026-05-06 21:50 | 32.40250 | 51.46583 | 39143 ft | 440 kts | 173° |
| 2026-05-06 21:50 | 32.34456 | 51.48917 | 39139 ft | 440 kts | 173° |
| 2026-05-06 21:51 | 32.28707 | 51.51242 | 39145 ft | 440 kts | 173° |
| 2026-05-06 21:51 | 32.22918 | 51.53583 | 39148 ft | 439 kts | 173° |
| 2026-05-06 21:52 | 32.17135 | 51.55916 | 39148 ft | 440 kts | 173° |
| 2026-05-06 21:52 | 32.11345 | 51.58249 | 39155 ft | 440 kts | 173° |
| 2026-05-06 21:53 | 32.05554 | 51.60578 | 39155 ft | 440 kts | 173° |
| 2026-05-06 21:53 | 31.99759 | 51.62906 | 39162 ft | 440 kts | 173° |
| 2026-05-06 21:54 | 31.93971 | 51.65229 | 39163 ft | 439 kts | 173° |
| 2026-05-06 21:54 | 31.88183 | 51.67542 | 39149 ft | 438 kts | 173° |
| 2026-05-06 21:55 | 31.82416 | 51.69835 | 39186 ft | 439 kts | 173° |
| 2026-05-06 21:55 | 31.76645 | 51.72169 | 39197 ft | 438 kts | 173° |
| 2026-05-06 21:56 | 31.70864 | 51.74471 | 39192 ft | 440 kts | 174° |
| 2026-05-06 21:56 | 31.65058 | 51.76781 | 39202 ft | 442 kts | 173° |
| 2026-05-06 21:57 | 31.59230 | 51.79105 | 39205 ft | 442 kts | 173° |
| 2026-05-06 21:57 | 31.53399 | 51.81432 | 39229 ft | 443 kts | 173° |
| 2026-05-06 21:58 | 31.47622 | 51.83735 | 39218 ft | 442 kts | 173° |
| 2026-05-06 21:58 | 31.41793 | 51.86047 | 39221 ft | 443 kts | 173° |
| 2026-05-06 21:59 | 31.35948 | 51.88369 | 39220 ft | 444 kts | 173° |
| 2026-05-06 21:59 | 31.30107 | 51.90687 | 39218 ft | 444 kts | 173° |
| 2026-05-06 22:00 | 31.24243 | 51.92998 | 39233 ft | 446 kts | 173° |
| 2026-05-06 22:00 | 31.18361 | 51.95318 | 39229 ft | 446 kts | 173° |
| 2026-05-06 22:01 | 31.12480 | 51.97638 | 39212 ft | 447 kts | 173° |
| 2026-05-06 22:01 | 31.06597 | 51.99960 | 39233 ft | 447 kts | 173° |
| 2026-05-06 22:02 | 31.00784 | 52.02261 | 39235 ft | 435 kts | 173° |
| 2026-05-06 22:02 | 30.95170 | 52.04489 | 39229 ft | 418 kts | 174° |
| 2026-05-06 22:03 | 30.89751 | 52.06623 | 39223 ft | 405 kts | 175° |
| 2026-05-06 22:03 | 30.84388 | 52.08708 | 39224 ft | 410 kts | 175° |
| 2026-05-06 22:04 | 30.78936 | 52.10806 | 39231 ft | 415 kts | 174° |
| 2026-05-06 22:04 | 30.73402 | 52.12954 | 39203 ft | 424 kts | 174° |
| 2026-05-06 22:05 | 30.67773 | 52.15156 | 39219 ft | 431 kts | 173° |
| 2026-05-06 22:05 | 30.62044 | 52.17400 | 39216 ft | 438 kts | 173° |
| 2026-05-06 22:06 | 30.56208 | 52.19669 | 39222 ft | 447 kts | 173° |
| 2026-05-06 22:06 | 30.50264 | 52.21967 | 39207 ft | 452 kts | 173° |
| 2026-05-06 22:07 | 30.44318 | 52.24275 | 39195 ft | 451 kts | 174° |
| 2026-05-06 22:07 | 30.38363 | 52.26580 | 39199 ft | 450 kts | 173° |
| 2026-05-06 22:08 | 30.32435 | 52.28874 | 39211 ft | 449 kts | 173° |
| 2026-05-06 22:08 | 30.26504 | 52.31159 | 39194 ft | 450 kts | 173° |
| 2026-05-06 22:09 | 30.20570 | 52.33442 | 39193 ft | 450 kts | 173° |
| 2026-05-06 22:09 | 30.14618 | 52.35731 | 39175 ft | 449 kts | 174° |
| 2026-05-06 22:10 | 30.08640 | 52.38018 | 39188 ft | 454 kts | 173° |
| 2026-05-06 22:10 | 30.02667 | 52.40317 | 39184 ft | 451 kts | 173° |
| 2026-05-06 22:11 | 29.96725 | 52.42600 | 39173 ft | 450 kts | 173° |
| 2026-05-06 22:11 | 29.90772 | 52.44875 | 39164 ft | 451 kts | 173° |
| 2026-05-06 22:12 | 29.84810 | 52.47151 | 39174 ft | 453 kts | 172° |
| 2026-05-06 22:12 | 29.78813 | 52.49443 | 39156 ft | 454 kts | 172° |
| 2026-05-06 22:13 | 29.72835 | 52.51724 | 39145 ft | 452 kts | 172° |
| 2026-05-06 22:13 | 29.66870 | 52.53994 | 39154 ft | 451 kts | 172° |
| 2026-05-06 22:14 | 29.60899 | 52.56262 | 39154 ft | 452 kts | 172° |
| 2026-05-06 22:14 | 29.54930 | 52.58528 | 39157 ft | 452 kts | 172° |
| 2026-05-06 22:15 | 29.49950 | 52.60271 | 39149 ft | 447 kts | 176° |
| 2026-05-06 22:15 | 29.43931 | 52.61915 | 39142 ft | 444 kts | 178° |
| 2026-05-06 22:16 | 29.37907 | 52.63506 | 39140 ft | 445 kts | 177° |
| 2026-05-06 22:16 | 29.31887 | 52.65168 | 39106 ft | 445 kts | 176° |
| 2026-05-06 22:17 | 29.25871 | 52.66871 | 39135 ft | 445 kts | 176° |
| 2026-05-06 22:17 | 29.19851 | 52.68583 | 39127 ft | 445 kts | 176° |
| 2026-05-06 22:18 | 29.13839 | 52.70288 | 39121 ft | 445 kts | 176° |
| 2026-05-06 22:18 | 29.07840 | 52.71988 | 39115 ft | 443 kts | 176° |
| 2026-05-06 22:19 | 29.01840 | 52.73681 | 39106 ft | 445 kts | 176° |
| 2026-05-06 22:19 | 28.95826 | 52.75378 | 39097 ft | 446 kts | 176° |
| 2026-05-06 22:20 | 28.89806 | 52.77077 | 39067 ft | 446 kts | 176° |
| 2026-05-06 22:20 | 28.83802 | 52.78759 | 39083 ft | 449 kts | 176° |
| 2026-05-06 22:21 | 28.77737 | 52.80460 | 39056 ft | 449 kts | 176° |
| 2026-05-06 22:21 | 28.71676 | 52.82161 | 39033 ft | 448 kts | 176° |
| 2026-05-06 22:22 | 28.65607 | 52.83864 | 39041 ft | 450 kts | 176° |
| 2026-05-06 22:22 | 28.59595 | 52.85549 | 39018 ft | 450 kts | 176° |
| 2026-05-06 22:23 | 28.53529 | 52.87251 | 39005 ft | 449 kts | 176° |
| 2026-05-06 22:23 | 28.47471 | 52.88943 | 39004 ft | 449 kts | 176° |
| 2026-05-06 22:24 | 28.41401 | 52.90635 | 38978 ft | 450 kts | 176° |
| 2026-05-06 22:24 | 28.35319 | 52.92309 | 38960 ft | 449 kts | 176° |
| 2026-05-06 22:25 | 28.29304 | 52.93915 | 38944 ft | 446 kts | 176° |
| 2026-05-06 22:25 | 28.23251 | 52.95523 | 38948 ft | 448 kts | 176° |
| 2026-05-06 22:26 | 28.17180 | 52.97151 | 38938 ft | 448 kts | 176° |
| 2026-05-06 22:26 | 28.11103 | 52.98776 | 38940 ft | 449 kts | 176° |
| 2026-05-06 22:27 | 28.05022 | 53.00401 | 38942 ft | 449 kts | 176° |
| 2026-05-06 22:27 | 27.98969 | 53.02016 | 38936 ft | 451 kts | 176° |
| 2026-05-06 22:28 | 27.92851 | 53.03648 | 38922 ft | 453 kts | 176° |
| 2026-05-06 22:28 | 27.86720 | 53.05284 | 38922 ft | 453 kts | 176° |
| 2026-05-06 22:29 | 27.80587 | 53.06919 | 38909 ft | 453 kts | 175° |
| 2026-05-06 22:29 | 27.74455 | 53.08550 | 38911 ft | 453 kts | 175° |
| 2026-05-06 22:30 | 27.68312 | 53.10182 | 38909 ft | 453 kts | 175° |
| 2026-05-06 22:30 | 27.62197 | 53.11804 | 38902 ft | 453 kts | 175° |
| 2026-05-06 22:31 | 27.56057 | 53.13431 | 38889 ft | 454 kts | 175° |
| 2026-05-06 22:31 | 27.49899 | 53.15057 | 38879 ft | 456 kts | 175° |
| 2026-05-06 22:32 | 27.43729 | 53.16686 | 38887 ft | 455 kts | 175° |
| 2026-05-06 22:32 | 27.37570 | 53.18318 | 38876 ft | 454 kts | 175° |
| 2026-05-06 22:33 | 27.31427 | 53.20085 | 38864 ft | 457 kts | 173° |
| 2026-05-06 22:33 | 27.25309 | 53.22021 | 38858 ft | 457 kts | 172° |
| 2026-05-06 22:34 | 27.19193 | 53.23948 | 38845 ft | 457 kts | 173° |
| 2026-05-06 22:34 | 27.13060 | 53.25844 | 38824 ft | 457 kts | 173° |
| 2026-05-06 22:35 | 27.06928 | 53.27724 | 38832 ft | 457 kts | 173° |
| 2026-05-06 22:35 | 27.00785 | 53.29602 | 38822 ft | 457 kts | 173° |
| 2026-05-06 22:36 | 26.94650 | 53.31477 | 38807 ft | 457 kts | 173° |
| 2026-05-06 22:36 | 26.88512 | 53.33353 | 38803 ft | 457 kts | 172° |
| 2026-05-06 22:37 | 26.82430 | 53.35553 | 38802 ft | 467 kts | 162° |
| 2026-05-06 22:37 | 26.81247 | 53.36209 | 38803 ft | 471 kts | 159° |
| 2026-05-06 22:38 | 26.77695 | 53.38876 | 38795 ft | 480 kts | 149° |
| 2026-05-06 22:38 | 26.72491 | 53.43622 | 38792 ft | 484 kts | 147° |
| 2026-05-06 22:39 | 26.67405 | 53.48492 | 38790 ft | 484 kts | 146° |
| 2026-05-06 22:39 | 26.62280 | 53.53374 | 38783 ft | 484 kts | 147° |
| 2026-05-06 22:40 | 26.57133 | 53.58214 | 38781 ft | 483 kts | 148° |
| 2026-05-06 22:40 | 26.51729 | 53.62552 | 38630 ft | 475 kts | 152° |
| 2026-05-06 22:41 | 26.46283 | 53.66686 | 37569 ft | 473 kts | 153° |
| 2026-05-06 22:41 | 26.43548 | 53.68738 | 36987 ft | 474 kts | 153° |